George Washington, Virginia
Current Conditions -  °F | °C
As of 2:52 AM on Thursday 23 Oct 2014 (Local Time) from KDCA Reporting Station
Overcast Overcast  
Wind Chill: 54°   Ceiling: 3700
Heat Index: 54°   Visibility: 10mi
Dew Point: 41°   Wind: 20mph
Humidity: 62%   Direction: 320°NW
Pressure: 29.89"   Gusts: 26mph
Location:  38.8367°N, 77.0641°W
Report Text: KDCA 230652Z 32017G23KT 10SM OVC037 12/05 A2989 RMK AO2 SLP122 T01220050
Loading
Personal Weather Stations






























Interactive Weather Map
Tropical Storm Tracking
New forecast layout! Learn more

10-Day Weather Forecast

Advertisements
Track Severe Weather on mobile